Country
Station

 

Weather  for  Corvallis Municipal Automatic Weather Observing/Reporting System  -  United States    United States

  
8 °C (46 °F)
    
 
 

Current METAR for Corvallis Municipal Automatic Weather Observing/Reporting System is :

KCVO 021156Z AUTO 27004KT 10SM OVC037 08/08 A3007 RMK AO2 SLP181 T00830078 10122 20072 55000

 

This is a report for Corvallis Municipal Automatic Weather Observing/Reporting System - United States.
 
The report was made 28 minutes ago, at 11:56 UTC .
The wind was blowing at a speed of 2.1 meters per second (4.6 miles per hour) from west (270°).
 
The temperature was 8 °C (46 °F), with a dew-point at 8 °C (46 °F).
The atmospheric pressure was 1018 hPa (30.07 inHg).
The relative humidity was 100.0%.
 
The sky was overcast from a height of 1128 meter (3700 feet)
 
The overall visibility was 16.1 kilometers (10.0 miles).
 

 
 
 
 

Country :   A   B   C   D   E   F   G   H   I   J   K   L   M   N   O   P   Q   R   S   T   U   V   W   Y   Z

 

Site Info  |  Disclaimer  |  Credits  |  Privacy
Contact us  |  Add to favorites
© 2013-2020 METARs - All rights reserved